sensor_id;sensor_type;location;lat;lon;timestamp;pressure;altitude;pressure_sealevel;temperature;humidity
80747;BME280;70144;50.218;14.322;2023-09-07T00:01:53;99760.28;;;14.54;66.12
80747;BME280;70144;50.218;14.322;2023-09-07T00:04:19;99764.75;;;14.50;65.71
80747;BME280;70144;50.218;14.322;2023-09-07T00:06:45;99763.34;;;14.53;66.12
80747;BME280;70144;50.218;14.322;2023-09-07T00:09:10;99758.03;;;14.37;66.15
80747;BME280;70144;50.218;14.322;2023-09-07T00:11:37;99761.00;;;14.41;66.10
80747;BME280;70144;50.218;14.322;2023-09-07T00:14:03;99763.78;;;14.41;65.87
80747;BME280;70144;50.218;14.322;2023-09-07T00:16:31;99756.41;;;14.31;66.55
80747;BME280;70144;50.218;14.322;2023-09-07T00:18:59;99746.25;;;14.27;66.52
80747;BME280;70144;50.218;14.322;2023-09-07T00:21:24;99760.56;;;14.29;66.14
80747;BME280;70144;50.218;14.322;2023-09-07T00:23:50;99764.78;;;14.21;66.67
80747;BME280;70144;50.218;14.322;2023-09-07T00:26:15;99747.00;;;14.14;66.54
80747;BME280;70144;50.218;14.322;2023-09-07T00:28:41;99756.06;;;14.14;66.67
80747;BME280;70144;50.218;14.322;2023-09-07T00:31:06;99771.63;;;14.24;66.32
80747;BME280;70144;50.218;14.322;2023-09-07T00:33:32;99770.34;;;14.16;67.03
80747;BME280;70144;50.218;14.322;2023-09-07T00:35:57;99767.91;;;14.15;66.96
80747;BME280;70144;50.218;14.322;2023-09-07T00:38:22;99771.53;;;14.10;66.58
80747;BME280;70144;50.218;14.322;2023-09-07T00:40:48;99763.84;;;14.07;66.73
80747;BME280;70144;50.218;14.322;2023-09-07T00:43:13;99766.06;;;14.05;67.11
80747;BME280;70144;50.218;14.322;2023-09-07T00:45:39;99766.38;;;14.04;66.87
80747;BME280;70144;50.218;14.322;2023-09-07T00:48:05;99737.97;;;13.84;67.90
80747;BME280;70144;50.218;14.322;2023-09-07T00:50:31;99756.56;;;13.92;67.70
80747;BME280;70144;50.218;14.322;2023-09-07T00:52:57;99763.66;;;13.99;67.33
80747;BME280;70144;50.218;14.322;2023-09-07T00:55:25;99768.88;;;14.00;67.10
80747;BME280;70144;50.218;14.322;2023-09-07T00:57:51;99759.56;;;13.96;67.37
80747;BME280;70144;50.218;14.322;2023-09-07T01:00:16;99767.84;;;13.96;67.19
80747;BME280;70144;50.218;14.322;2023-09-07T01:02:42;99769.75;;;13.96;67.42
80747;BME280;70144;50.218;14.322;2023-09-07T01:05:10;99768.94;;;13.95;67.05
80747;BME280;70144;50.218;14.322;2023-09-07T01:07:48;99771.13;;;13.93;67.04
80747;BME280;70144;50.218;14.322;2023-09-07T01:10:18;99768.50;;;13.83;67.34
80747;BME280;70144;50.218;14.322;2023-09-07T01:12:43;99775.06;;;13.87;67.24
80747;BME280;70144;50.218;14.322;2023-09-07T01:15:09;99768.22;;;13.84;67.21
80747;BME280;70144;50.218;14.322;2023-09-07T01:17:35;99763.03;;;13.78;67.52
80747;BME280;70144;50.218;14.322;2023-09-07T01:20:05;99761.41;;;13.77;68.04
80747;BME280;70144;50.218;14.322;2023-09-07T01:22:35;99772.41;;;13.77;67.83
80747;BME280;70144;50.218;14.322;2023-09-07T01:25:02;99767.78;;;13.72;67.88
80747;BME280;70144;50.218;14.322;2023-09-07T01:27:28;99764.31;;;13.62;68.33
80747;BME280;70144;50.218;14.322;2023-09-07T01:29:53;99773.88;;;13.69;67.93
80747;BME280;70144;50.218;14.322;2023-09-07T01:32:18;99750.59;;;13.57;68.46
80747;BME280;70144;50.218;14.322;2023-09-07T01:34:44;99764.00;;;13.63;68.57
80747;BME280;70144;50.218;14.322;2023-09-07T01:37:09;99761.84;;;13.60;68.19
80747;BME280;70144;50.218;14.322;2023-09-07T01:39:35;99743.75;;;13.54;67.94
80747;BME280;70144;50.218;14.322;2023-09-07T01:42:00;99761.81;;;13.65;67.76
80747;BME280;70144;50.218;14.322;2023-09-07T01:44:25;99769.81;;;13.62;68.03
80747;BME280;70144;50.218;14.322;2023-09-07T01:46:52;99748.22;;;13.45;68.10
80747;BME280;70144;50.218;14.322;2023-09-07T01:49:17;99762.13;;;13.59;68.77
80747;BME280;70144;50.218;14.322;2023-09-07T01:51:43;99757.50;;;13.54;68.55
80747;BME280;70144;50.218;14.322;2023-09-07T01:54:08;99764.63;;;13.55;68.45
80747;BME280;70144;50.218;14.322;2023-09-07T01:56:35;99759.94;;;13.56;68.36
80747;BME280;70144;50.218;14.322;2023-09-07T01:59:00;99740.56;;;13.42;68.13
80747;BME280;70144;50.218;14.322;2023-09-07T02:01:31;99758.59;;;13.53;67.96
80747;BME280;70144;50.218;14.322;2023-09-07T02:03:57;99749.91;;;13.41;68.18
80747;BME280;70144;50.218;14.322;2023-09-07T02:06:22;99776.47;;;13.51;68.43
80747;BME280;70144;50.218;14.322;2023-09-07T02:08:48;99759.75;;;13.47;68.21
80747;BME280;70144;50.218;14.322;2023-09-07T02:11:14;99775.13;;;13.48;68.41
80747;BME280;70144;50.218;14.322;2023-09-07T02:13:43;99766.38;;;13.46;68.21
80747;BME280;70144;50.218;14.322;2023-09-07T02:16:08;99778.19;;;13.47;68.80
80747;BME280;70144;50.218;14.322;2023-09-07T02:18:35;99772.38;;;13.48;68.55
80747;BME280;70144;50.218;14.322;2023-09-07T02:21:02;99772.38;;;13.48;68.49
80747;BME280;70144;50.218;14.322;2023-09-07T02:23:29;99755.97;;;13.38;68.16
80747;BME280;70144;50.218;14.322;2023-09-07T02:25:54;99771.09;;;13.35;69.18
80747;BME280;70144;50.218;14.322;2023-09-07T02:28:19;99756.59;;;13.30;68.53
80747;BME280;70144;50.218;14.322;2023-09-07T02:30:45;99763.19;;;13.29;68.22
80747;BME280;70144;50.218;14.322;2023-09-07T02:33:10;99778.84;;;13.33;68.84
80747;BME280;70144;50.218;14.322;2023-09-07T02:35:38;99781.84;;;13.32;69.04
80747;BME280;70144;50.218;14.322;2023-09-07T02:38:04;99786.84;;;13.30;69.25
80747;BME280;70144;50.218;14.322;2023-09-07T02:40:29;99775.84;;;13.30;68.92
80747;BME280;70144;50.218;14.322;2023-09-07T02:42:54;99787.34;;;13.32;68.68
80747;BME280;70144;50.218;14.322;2023-09-07T02:45:20;99784.09;;;13.30;68.61
80747;BME280;70144;50.218;14.322;2023-09-07T02:47:45;99788.50;;;13.26;69.10
80747;BME280;70144;50.218;14.322;2023-09-07T02:50:12;99786.03;;;13.24;68.38
80747;BME280;70144;50.218;14.322;2023-09-07T02:52:39;99784.69;;;13.22;69.09
80747;BME280;70144;50.218;14.322;2023-09-07T02:55:05;99791.53;;;13.24;68.89
80747;BME280;70144;50.218;14.322;2023-09-07T02:57:31;99789.66;;;13.20;68.73
80747;BME280;70144;50.218;14.322;2023-09-07T02:59:57;99770.75;;;13.08;68.95
80747;BME280;70144;50.218;14.322;2023-09-07T03:02:22;99791.03;;;13.17;68.77
80747;BME280;70144;50.218;14.322;2023-09-07T03:04:47;99768.03;;;12.98;69.02
80747;BME280;70144;50.218;14.322;2023-09-07T03:07:13;99792.19;;;13.11;68.95
80747;BME280;70144;50.218;14.322;2023-09-07T03:09:38;99791.38;;;13.11;68.85
80747;BME280;70144;50.218;14.322;2023-09-07T03:12:04;99791.91;;;13.08;69.10
80747;BME280;70144;50.218;14.322;2023-09-07T03:14:29;99786.19;;;12.99;69.17
80747;BME280;70144;50.218;14.322;2023-09-07T03:16:56;99778.53;;;12.91;69.20
80747;BME280;70144;50.218;14.322;2023-09-07T03:19:21;99784.50;;;13.03;68.75
80747;BME280;70144;50.218;14.322;2023-09-07T03:21:46;99791.66;;;13.04;68.89
80747;BME280;70144;50.218;14.322;2023-09-07T03:24:12;99782.09;;;12.96;68.37
80747;BME280;70144;50.218;14.322;2023-09-07T03:26:37;99787.59;;;12.96;68.71
80747;BME280;70144;50.218;14.322;2023-09-07T03:29:02;99785.41;;;12.93;68.84
80747;BME280;70144;50.218;14.322;2023-09-07T03:31:28;99772.81;;;12.82;68.79
80747;BME280;70144;50.218;14.322;2023-09-07T03:33:54;99788.69;;;12.90;68.97
80747;BME280;70144;50.218;14.322;2023-09-07T03:36:20;99788.44;;;12.87;69.05
80747;BME280;70144;50.218;14.322;2023-09-07T03:38:47;99790.13;;;12.83;69.13
80747;BME280;70144;50.218;14.322;2023-09-07T03:41:12;99787.66;;;12.81;69.10
80747;BME280;70144;50.218;14.322;2023-09-07T03:43:37;99798.41;;;12.78;69.55
80747;BME280;70144;50.218;14.322;2023-09-07T03:46:03;99793.19;;;12.71;69.41
80747;BME280;70144;50.218;14.322;2023-09-07T03:48:28;99781.44;;;12.66;68.51
80747;BME280;70144;50.218;14.322;2023-09-07T03:50:54;99795.09;;;12.76;69.15
80747;BME280;70144;50.218;14.322;2023-09-07T03:53:19;99782.78;;;12.63;68.77
80747;BME280;70144;50.218;14.322;2023-09-07T03:55:45;99800.34;;;12.72;68.83
80747;BME280;70144;50.218;14.322;2023-09-07T03:58:10;99800.34;;;12.72;69.23
80747;BME280;70144;50.218;14.322;2023-09-07T04:00:40;99802.31;;;12.67;69.47
80747;BME280;70144;50.218;14.322;2023-09-07T04:03:07;99806.97;;;12.66;69.22
80747;BME280;70144;50.218;14.322;2023-09-07T04:05:32;99805.06;;;12.62;69.26
80747;BME280;70144;50.218;14.322;2023-09-07T04:07:58;99782.34;;;12.46;69.00
80747;BME280;70144;50.218;14.322;2023-09-07T04:10:24;99799.81;;;12.65;68.95
80747;BME280;70144;50.218;14.322;2023-09-07T04:12:49;99805.84;;;12.67;69.06
80747;BME280;70144;50.218;14.322;2023-09-07T04:15:15;99804.25;;;12.61;68.92
80747;BME280;70144;50.218;14.322;2023-09-07T04:17:40;99800.97;;;12.54;69.37
80747;BME280;70144;50.218;14.322;2023-09-07T04:20:07;99793.84;;;12.48;68.91
80747;BME280;70144;50.218;14.322;2023-09-07T04:22:34;99808.66;;;12.52;69.17
80747;BME280;70144;50.218;14.322;2023-09-07T04:24:59;99809.78;;;12.51;69.14
80747;BME280;70144;50.218;14.322;2023-09-07T04:27:25;99817.19;;;12.50;69.15
80747;BME280;70144;50.218;14.322;2023-09-07T04:29:51;99809.78;;;12.46;69.45
80747;BME280;70144;50.218;14.322;2023-09-07T04:32:16;99790.88;;;12.39;69.04
80747;BME280;70144;50.218;14.322;2023-09-07T04:34:41;99752.84;;;12.08;69.08
80747;BME280;70144;50.218;14.322;2023-09-07T04:37:07;99807.56;;;12.48;69.40
80747;BME280;70144;50.218;14.322;2023-09-07T04:39:32;99804.56;;;12.49;68.87
80747;BME280;70144;50.218;14.322;2023-09-07T04:41:58;99802.66;;;12.45;68.89
80747;BME280;70144;50.218;14.322;2023-09-07T04:44:23;99811.72;;;12.40;69.71
80747;BME280;70144;50.218;14.322;2023-09-07T04:46:48;99807.63;;;12.43;69.02
80747;BME280;70144;50.218;14.322;2023-09-07T04:49:15;99766.53;;;12.13;69.27
80747;BME280;70144;50.218;14.322;2023-09-07T04:51:40;99810.38;;;12.38;69.28
80747;BME280;70144;50.218;14.322;2023-09-07T04:54:06;99796.38;;;12.29;69.12
80747;BME280;70144;50.218;14.322;2023-09-07T04:56:31;99802.44;;;12.31;69.14
80747;BME280;70144;50.218;14.322;2023-09-07T04:58:56;99798.59;;;12.32;69.42
80747;BME280;70144;50.218;14.322;2023-09-07T05:01:22;99807.88;;;12.41;69.31
80747;BME280;70144;50.218;14.322;2023-09-07T05:03:47;99811.44;;;12.42;69.28
80747;BME280;70144;50.218;14.322;2023-09-07T05:06:12;99801.28;;;12.42;69.37
80747;BME280;70144;50.218;14.322;2023-09-07T05:08:39;99808.13;;;12.50;69.42
80747;BME280;70144;50.218;14.322;2023-09-07T05:11:04;99811.16;;;12.48;69.82
80747;BME280;70144;50.218;14.322;2023-09-07T05:13:30;99807.31;;;12.49;70.40
80747;BME280;70144;50.218;14.322;2023-09-07T05:15:58;99817.16;;;12.56;69.35
80747;BME280;70144;50.218;14.322;2023-09-07T05:18:24;99810.63;;;12.46;69.64
80747;BME280;70144;50.218;14.322;2023-09-07T05:20:49;99813.06;;;12.53;70.53
80747;BME280;70144;50.218;14.322;2023-09-07T05:23:17;99818.25;;;12.60;70.26
80747;BME280;70144;50.218;14.322;2023-09-07T05:25:54;99806.72;;;12.63;69.72
80747;BME280;70144;50.218;14.322;2023-09-07T05:28:21;99807.50;;;12.63;70.67
80747;BME280;70144;50.218;14.322;2023-09-07T05:30:47;99805.31;;;12.65;70.74
80747;BME280;70144;50.218;14.322;2023-09-07T05:33:15;99788.28;;;12.68;70.15
80747;BME280;70144;50.218;14.322;2023-09-07T05:35:41;99821.97;;;12.89;70.43
80747;BME280;70144;50.218;14.322;2023-09-07T05:38:07;99812.59;;;12.90;70.73
80747;BME280;70144;50.218;14.322;2023-09-07T05:40:37;99814.22;;;12.96;70.37
80747;BME280;70144;50.218;14.322;2023-09-07T05:43:03;99827.38;;;13.04;71.24
80747;BME280;70144;50.218;14.322;2023-09-07T05:45:41;99823.22;;;13.07;70.76
80747;BME280;70144;50.218;14.322;2023-09-07T05:48:06;99838.06;;;13.16;70.28
80747;BME280;70144;50.218;14.322;2023-09-07T05:50:34;99829.50;;;13.17;71.76
80747;BME280;70144;50.218;14.322;2023-09-07T05:53:00;99826.19;;;13.20;70.52
80747;BME280;70144;50.218;14.322;2023-09-07T05:55:26;99842.06;;;13.33;70.45
80747;BME280;70144;50.218;14.322;2023-09-07T05:57:54;99838.97;;;13.45;71.84
80747;BME280;70144;50.218;14.322;2023-09-07T06:00:20;99827.34;;;13.53;70.94
80747;BME280;70144;50.218;14.322;2023-09-07T06:02:45;99825.69;;;13.57;72.27
80747;BME280;70144;50.218;14.322;2023-09-07T06:05:11;99821.75;;;13.63;72.72
80747;BME280;70144;50.218;14.322;2023-09-07T06:07:37;99834.53;;;13.83;72.28
80747;BME280;70144;50.218;14.322;2023-09-07T06:10:02;99830.63;;;13.89;71.35
80747;BME280;70144;50.218;14.322;2023-09-07T06:12:30;99821.84;;;13.87;71.37
80747;BME280;70144;50.218;14.322;2023-09-07T06:14:56;99819.53;;;13.99;69.53
80747;BME280;70144;50.218;14.322;2023-09-07T06:17:21;99840.81;;;14.17;70.05
80747;BME280;70144;50.218;14.322;2023-09-07T06:19:46;99838.88;;;14.18;71.60
80747;BME280;70144;50.218;14.322;2023-09-07T06:22:12;99838.78;;;14.28;70.47
80747;BME280;70144;50.218;14.322;2023-09-07T06:24:37;99824.13;;;14.32;69.40
80747;BME280;70144;50.218;14.322;2023-09-07T06:27:03;99836.34;;;14.50;70.11
80747;BME280;70144;50.218;14.322;2023-09-07T06:29:28;99843.75;;;14.55;72.05
80747;BME280;70144;50.218;14.322;2023-09-07T06:31:53;99830.50;;;14.57;69.51
80747;BME280;70144;50.218;14.322;2023-09-07T06:34:19;99844.91;;;14.72;72.06
80747;BME280;70144;50.218;14.322;2023-09-07T06:36:44;99838.72;;;14.80;72.03
80747;BME280;70144;50.218;14.322;2023-09-07T06:39:09;99832.34;;;14.85;69.62
80747;BME280;70144;50.218;14.322;2023-09-07T06:41:35;99844.38;;;14.94;73.91
80747;BME280;70144;50.218;14.322;2023-09-07T06:44:00;99848.69;;;15.19;71.24
80747;BME280;70144;50.218;14.322;2023-09-07T06:46:25;99847.81;;;15.23;70.72
80747;BME280;70144;50.218;14.322;2023-09-07T06:48:51;99842.75;;;15.30;68.89
80747;BME280;70144;50.218;14.322;2023-09-07T06:51:17;99857.34;;;15.31;73.05
80747;BME280;70144;50.218;14.322;2023-09-07T06:53:42;99844.69;;;15.30;71.85
80747;BME280;70144;50.218;14.322;2023-09-07T06:56:08;99857.19;;;15.41;73.74
80747;BME280;70144;50.218;14.322;2023-09-07T06:58:33;99856.03;;;15.47;73.72
80747;BME280;70144;50.218;14.322;2023-09-07T07:01:00;99849.84;;;15.55;73.99
80747;BME280;70144;50.218;14.322;2023-09-07T07:03:28;99860.28;;;15.58;74.53
80747;BME280;70144;50.218;14.322;2023-09-07T07:05:54;99859.44;;;15.76;71.23
80747;BME280;70144;50.218;14.322;2023-09-07T07:08:20;99861.28;;;16.13;71.52
80747;BME280;70144;50.218;14.322;2023-09-07T07:10:46;99842.28;;;16.25;70.24
80747;BME280;70144;50.218;14.322;2023-09-07T07:13:11;99849.81;;;16.39;71.43
80747;BME280;70144;50.218;14.322;2023-09-07T07:15:37;99853.72;;;16.78;69.19
80747;BME280;70144;50.218;14.322;2023-09-07T07:18:02;99859.22;;;17.19;69.28
80747;BME280;70144;50.218;14.322;2023-09-07T07:20:34;99862.19;;;17.95;66.08
80747;BME280;70144;50.218;14.322;2023-09-07T07:22:59;99857.28;;;18.76;63.38
80747;BME280;70144;50.218;14.322;2023-09-07T07:25:25;99861.50;;;19.38;63.24
80747;BME280;70144;50.218;14.322;2023-09-07T07:27:50;99856.41;;;20.09;59.95
80747;BME280;70144;50.218;14.322;2023-09-07T07:30:15;99852.53;;;21.03;58.17
80747;BME280;70144;50.218;14.322;2023-09-07T07:32:41;99856.47;;;21.52;55.63
80747;BME280;70144;50.218;14.322;2023-09-07T07:35:06;99854.88;;;22.25;54.48
80747;BME280;70144;50.218;14.322;2023-09-07T07:37:32;99849.56;;;22.57;54.06
80747;BME280;70144;50.218;14.322;2023-09-07T07:39:57;99862.41;;;23.30;52.05
80747;BME280;70144;50.218;14.322;2023-09-07T07:42:22;99858.59;;;23.75;50.61
80747;BME280;70144;50.218;14.322;2023-09-07T07:44:48;99861.78;;;24.29;50.55
80747;BME280;70144;50.218;14.322;2023-09-07T07:47:13;99853.53;;;24.64;48.54
80747;BME280;70144;50.218;14.322;2023-09-07T07:49:38;99846.19;;;24.44;47.10
80747;BME280;70144;50.218;14.322;2023-09-07T07:52:04;99854.13;;;25.20;46.75
80747;BME280;70144;50.218;14.322;2023-09-07T07:54:30;99842.69;;;25.60;45.60
80747;BME280;70144;50.218;14.322;2023-09-07T07:56:55;99839.44;;;25.77;44.23
80747;BME280;70144;50.218;14.322;2023-09-07T07:59:20;99856.50;;;26.49;43.81
80747;BME280;70144;50.218;14.322;2023-09-07T08:01:46;99852.94;;;25.37;44.70
80747;BME280;70144;50.218;14.322;2023-09-07T08:04:13;99851.63;;;26.88;40.34
80747;BME280;70144;50.218;14.322;2023-09-07T08:06:39;99851.69;;;26.07;42.40
80747;BME280;70144;50.218;14.322;2023-09-07T08:09:04;99854.59;;;26.53;45.32
80747;BME280;70144;50.218;14.322;2023-09-07T08:11:30;99848.47;;;27.42;43.29
80747;BME280;70144;50.218;14.322;2023-09-07T08:13:55;99851.25;;;28.31;39.92
80747;BME280;70144;50.218;14.322;2023-09-07T08:16:21;99844.00;;;27.41;38.64
80747;BME280;70144;50.218;14.322;2023-09-07T08:18:47;99854.97;;;27.46;37.87
80747;BME280;70144;50.218;14.322;2023-09-07T08:21:14;99830.97;;;28.15;40.75
80747;BME280;70144;50.218;14.322;2023-09-07T08:23:39;99838.94;;;28.09;41.58
80747;BME280;70144;50.218;14.322;2023-09-07T08:26:05;99837.69;;;28.81;38.28
80747;BME280;70144;50.218;14.322;2023-09-07T08:28:30;99841.66;;;29.89;37.51
80747;BME280;70144;50.218;14.322;2023-09-07T08:30:56;99839.66;;;28.36;36.96
80747;BME280;70144;50.218;14.322;2023-09-07T08:33:24;99832.41;;;28.39;39.79
80747;BME280;70144;50.218;14.322;2023-09-07T08:35:57;99843.03;;;28.52;36.17
80747;BME280;70144;50.218;14.322;2023-09-07T08:38:23;99838.75;;;28.29;35.81
80747;BME280;70144;50.218;14.322;2023-09-07T08:41:00;99843.31;;;29.97;37.06
80747;BME280;70144;50.218;14.322;2023-09-07T08:43:28;99839.38;;;30.37;33.48
80747;BME280;70144;50.218;14.322;2023-09-07T08:46:10;99838.91;;;30.10;36.34
80747;BME280;70144;50.218;14.322;2023-09-07T08:48:39;99838.66;;;30.75;34.47
80747;BME280;70144;50.218;14.322;2023-09-07T08:51:06;99841.91;;;30.95;33.44
80747;BME280;70144;50.218;14.322;2023-09-07T08:53:32;99833.44;;;31.13;32.55
80747;BME280;70144;50.218;14.322;2023-09-07T08:56:00;99839.31;;;32.00;33.75
80747;BME280;70144;50.218;14.322;2023-09-07T08:58:26;99827.63;;;32.63;31.60
80747;BME280;70144;50.218;14.322;2023-09-07T09:00:51;99838.13;;;32.70;31.13
80747;BME280;70144;50.218;14.322;2023-09-07T09:03:19;99835.03;;;33.02;30.23
80747;BME280;70144;50.218;14.322;2023-09-07T09:05:46;99825.88;;;33.69;28.57
80747;BME280;70144;50.218;14.322;2023-09-07T09:08:12;99830.03;;;31.92;29.69
80747;BME280;70144;50.218;14.322;2023-09-07T09:10:40;99829.41;;;31.03;31.75
80747;BME280;70144;50.218;14.322;2023-09-07T09:13:05;99830.97;;;31.54;31.50
80747;BME280;70144;50.218;14.322;2023-09-07T09:15:31;99833.22;;;32.01;31.09
80747;BME280;70144;50.218;14.322;2023-09-07T09:17:56;99827.22;;;33.16;29.38
80747;BME280;70144;50.218;14.322;2023-09-07T09:20:23;99828.69;;;33.32;27.41
80747;BME280;70144;50.218;14.322;2023-09-07T09:22:54;99829.19;;;32.75;29.04
80747;BME280;70144;50.218;14.322;2023-09-07T09:25:21;99832.09;;;33.53;31.23
80747;BME280;70144;50.218;14.322;2023-09-07T09:27:47;99829.38;;;33.43;30.96
80747;BME280;70144;50.218;14.322;2023-09-07T09:30:13;99819.19;;;34.13;29.50
80747;BME280;70144;50.218;14.322;2023-09-07T09:32:44;99824.09;;;34.16;28.04
80747;BME280;70144;50.218;14.322;2023-09-07T09:35:09;99824.75;;;35.04;27.97
80747;BME280;70144;50.218;14.322;2023-09-07T09:37:46;99819.88;;;34.54;30.03
80747;BME280;70144;50.218;14.322;2023-09-07T09:40:13;99822.88;;;35.64;29.10
80747;BME280;70144;50.218;14.322;2023-09-07T09:42:41;99815.03;;;36.63;25.90
80747;BME280;70144;50.218;14.322;2023-09-07T09:45:07;99810.88;;;35.92;25.99
80747;BME280;70144;50.218;14.322;2023-09-07T09:47:33;99807.00;;;36.74;24.60
80747;BME280;70144;50.218;14.322;2023-09-07T09:50:02;99803.84;;;37.33;24.97
80747;BME280;70144;50.218;14.322;2023-09-07T09:52:31;99804.00;;;37.42;25.32
80747;BME280;70144;50.218;14.322;2023-09-07T09:54:57;99790.16;;;36.63;25.22
80747;BME280;70144;50.218;14.322;2023-09-07T09:57:22;99799.84;;;35.94;25.69
80747;BME280;70144;50.218;14.322;2023-09-07T09:59:48;99788.19;;;36.92;25.04
80747;BME280;70144;50.218;14.322;2023-09-07T10:02:15;99792.28;;;37.24;25.21
80747;BME280;70144;50.218;14.322;2023-09-07T10:04:41;99788.66;;;36.59;27.13
80747;BME280;70144;50.218;14.322;2023-09-07T10:07:06;99793.59;;;37.64;25.82
80747;BME280;70144;50.218;14.322;2023-09-07T10:09:33;99794.78;;;36.89;24.73
80747;BME280;70144;50.218;14.322;2023-09-07T10:11:59;99779.44;;;37.61;22.42
80747;BME280;70144;50.218;14.322;2023-09-07T10:14:26;99777.81;;;37.31;24.43
80747;BME280;70144;50.218;14.322;2023-09-07T10:17:02;99791.72;;;37.74;24.25
80747;BME280;70144;50.218;14.322;2023-09-07T10:19:29;99779.13;;;38.76;23.88
80747;BME280;70144;50.218;14.322;2023-09-07T10:21:55;99775.69;;;38.94;20.89
80747;BME280;70144;50.218;14.322;2023-09-07T10:24:29;99784.00;;;39.01;21.32
80747;BME280;70144;50.218;14.322;2023-09-07T10:27:04;99785.88;;;40.78;21.02
80747;BME280;70144;50.218;14.322;2023-09-07T10:29:41;99777.53;;;40.61;21.64
80747;BME280;70144;50.218;14.322;2023-09-07T10:32:07;99778.81;;;39.99;21.83
80747;BME280;70144;50.218;14.322;2023-09-07T10:34:35;99762.06;;;39.19;21.65
80747;BME280;70144;50.218;14.322;2023-09-07T10:37:03;99776.66;;;39.12;20.37
80747;BME280;70144;50.218;14.322;2023-09-07T10:39:31;99770.28;;;39.86;22.94
80747;BME280;70144;50.218;14.322;2023-09-07T10:41:57;99774.38;;;40.68;20.47
80747;BME280;70144;50.218;14.322;2023-09-07T10:44:26;99777.09;;;40.72;20.55
80747;BME280;70144;50.218;14.322;2023-09-07T10:46:53;99734.09;;;40.90;17.14
80747;BME280;70144;50.218;14.322;2023-09-07T10:49:19;99755.50;;;41.16;21.52
80747;BME280;70144;50.218;14.322;2023-09-07T10:51:46;99764.19;;;42.55;18.29
80747;BME280;70144;50.218;14.322;2023-09-07T10:54:16;99756.28;;;42.74;19.19
80747;BME280;70144;50.218;14.322;2023-09-07T10:56:45;99755.28;;;42.44;18.36
80747;BME280;70144;50.218;14.322;2023-09-07T10:59:13;99748.34;;;42.18;16.82
80747;BME280;70144;50.218;14.322;2023-09-07T11:01:38;99756.66;;;41.46;16.15
80747;BME280;70144;50.218;14.322;2023-09-07T11:04:04;99756.34;;;40.68;20.94
80747;BME280;70144;50.218;14.322;2023-09-07T11:06:30;99760.00;;;41.45;19.07
80747;BME280;70144;50.218;14.322;2023-09-07T11:08:59;99747.56;;;42.26;18.23
80747;BME280;70144;50.218;14.322;2023-09-07T11:11:25;99738.22;;;43.21;18.53
80747;BME280;70144;50.218;14.322;2023-09-07T11:13:51;99747.25;;;42.57;16.16
80747;BME280;70144;50.218;14.322;2023-09-07T11:16:16;99743.03;;;42.34;16.80
80747;BME280;70144;50.218;14.322;2023-09-07T11:18:42;99739.44;;;43.05;17.02
80747;BME280;70144;50.218;14.322;2023-09-07T11:21:07;99744.66;;;42.92;17.02
80747;BME280;70144;50.218;14.322;2023-09-07T11:23:33;99743.03;;;43.53;16.41
80747;BME280;70144;50.218;14.322;2023-09-07T11:26:05;99742.88;;;44.30;15.33
80747;BME280;70144;50.218;14.322;2023-09-07T11:28:31;99735.06;;;44.85;14.38
80747;BME280;70144;50.218;14.322;2023-09-07T11:30:58;99730.09;;;45.06;16.10
80747;BME280;70144;50.218;14.322;2023-09-07T11:33:24;99732.28;;;44.41;15.96
80747;BME280;70144;50.218;14.322;2023-09-07T11:35:50;99730.25;;;43.30;17.25
80747;BME280;70144;50.218;14.322;2023-09-07T11:38:17;99719.69;;;42.89;15.91
80747;BME280;70144;50.218;14.322;2023-09-07T11:40:43;99727.47;;;42.97;17.02
80747;BME280;70144;50.218;14.322;2023-09-07T11:43:13;99720.50;;;43.81;16.95
80747;BME280;70144;50.218;14.322;2023-09-07T11:45:40;99723.59;;;44.71;14.69
80747;BME280;70144;50.218;14.322;2023-09-07T11:48:06;99724.78;;;44.64;14.57
80747;BME280;70144;50.218;14.322;2023-09-07T11:50:34;99727.88;;;44.61;15.67
80747;BME280;70144;50.218;14.322;2023-09-07T11:53:00;99732.47;;;44.53;16.65
80747;BME280;70144;50.218;14.322;2023-09-07T11:55:25;99724.00;;;44.29;17.55
80747;BME280;70144;50.218;14.322;2023-09-07T11:57:50;99719.53;;;44.48;13.24
80747;BME280;70144;50.218;14.322;2023-09-07T12:00:17;99723.41;;;44.60;14.52
80747;BME280;70144;50.218;14.322;2023-09-07T12:02:42;99721.00;;;44.09;14.89
80747;BME280;70144;50.218;14.322;2023-09-07T12:05:08;99722.81;;;43.91;16.29
80747;BME280;70144;50.218;14.322;2023-09-07T12:07:35;99714.66;;;44.54;14.22
80747;BME280;70144;50.218;14.322;2023-09-07T12:10:01;99723.84;;;44.38;14.36
80747;BME280;70144;50.218;14.322;2023-09-07T12:12:26;99730.41;;;45.08;16.11
80747;BME280;70144;50.218;14.322;2023-09-07T12:14:52;99716.88;;;45.66;14.94
80747;BME280;70144;50.218;14.322;2023-09-07T12:17:17;99719.78;;;45.00;13.97
80747;BME280;70144;50.218;14.322;2023-09-07T12:19:45;99722.91;;;44.61;13.17
80747;BME280;70144;50.218;14.322;2023-09-07T12:22:11;99709.56;;;45.45;13.77
80747;BME280;70144;50.218;14.322;2023-09-07T12:24:36;99714.53;;;45.44;14.09
80747;BME280;70144;50.218;14.322;2023-09-07T12:27:02;99704.91;;;45.53;13.13
80747;BME280;70144;50.218;14.322;2023-09-07T12:29:27;99694.38;;;45.50;13.67
80747;BME280;70144;50.218;14.322;2023-09-07T12:31:52;99710.13;;;45.74;13.41
80747;BME280;70144;50.218;14.322;2023-09-07T12:34:18;99698.16;;;46.18;13.05
80747;BME280;70144;50.218;14.322;2023-09-07T12:36:43;99701.19;;;46.04;10.64
80747;BME280;70144;50.218;14.322;2023-09-07T12:39:08;99692.66;;;46.63;12.91
80747;BME280;70144;50.218;14.322;2023-09-07T12:41:37;99681.38;;;45.97;11.50
80747;BME280;70144;50.218;14.322;2023-09-07T12:44:03;99693.94;;;46.99;12.14
80747;BME280;70144;50.218;14.322;2023-09-07T12:46:28;99673.28;;;46.80;11.99